KBBW/BBW METAR and TAF weather

Enter ICAO airport designator
Station Type Date Time Source
KBBW METAR 2021/04/13 21:53 UTC NOAA

KBBW 132153Z AUTO 30014G21KT 10SM CLR 12/M06 A3013 RMK AO2 SLP215 T01171061


Station Type Date Time Source
KBBW Decoded METAR 2021/04/13 21:53 UTC NOAA

BROKEN BOW MUNICIPAL AIRPORT, NE, United States (KBBW) 41-26N 099-38W
Apr 13, 2021 - 05:53 PM EDT / 2021.04.13 2153 UTC
Wind: from the WNW (300 degrees) at 16 MPH (14 KT) gusting to 24 MPH (21 KT):0
Visibility: 10 mile(s):0
Sky conditions: clear
Temperature: 53.1 F (11.7 C)
Dew Point: 21.0 F (-6.1 C)
Relative Humidity: 28%
Pressure (altimeter): 30.13 in. Hg (1020 hPa)
ob: KBBW 132153Z AUTO 30014G21KT 10SM CLR 12/M06 A3013 RMK AO2 SLP215 T01171061
cycle: 22

Station Type Date Time Source
KBBW TAF UTC NOAA

Error!

Example: see airport list